Terminal Aerodrome Forecast
Issued by NWS

Home | Current Version | Previous Version | Text Only | Print | Product List | Glossary On
Versions: 1 2 3 4 5 6 7 8 9 10 11 12 13 14 15 16 17 18 19 20 21 22 23 24 25 26 27
000
FTUS43 KDLH 152300 RRA
TAFBRD
TAF
KBRD 152340Z 1600/1624 36014G20KT 2SM -SN BR BKN009 OVC030
      TEMPO 1600/1603 1SM -SN OVC007
     FM160800 35014G20KT P6SM BKN015 OVC030
     FM161400 34012KT P6SM BKN018
     FM162000 32009KT 6SM -SN SCT015 BKN028=

USA.gov is the U.S. government's official web portal to all federal, state and local government web resources and services.